Map

Track Data

SID SEASON NUMBER BASIN SUBBASIN NAME ISO_TIME NATURE LAT LON WMO_WIND WMO_PRES WMO_AGENCY TRACK_TYPE DIST2LAND LANDFALL IFLAG USA_AGENCY USA_ATCF_ID USA_LAT USA_LON USA_RECORD USA_STATUS USA_WIND USA_PRES USA_SSHS USA_R34_NE USA_R34_SE USA_R34_SW USA_R34_NW USA_R50_NE USA_R50_SE USA_R50_SW USA_R50_NW USA_R64_NE USA_R64_SE USA_R64_SW USA_R64_NW USA_POCI USA_ROCI USA_RMW USA_EYE TOKYO_LAT TOKYO_LON TOKYO_GRADE TOKYO_WIND TOKYO_PRES TOKYO_R50_DIR TOKYO_R50_LONG TOKYO_R50_SHORT TOKYO_R30_DIR TOKYO_R30_LONG TOKYO_R30_SHORT TOKYO_LAND CMA_LAT CMA_LON CMA_CAT CMA_WIND CMA_PRES HKO_LAT HKO_LON HKO_CAT HKO_WIND HKO_PRES NEWDELHI_LAT NEWDELHI_LON NEWDELHI_GRADE NEWDELHI_WIND NEWDELHI_PRES NEWDELHI_CI NEWDELHI_DP NEWDELHI_POCI REUNION_LAT REUNION_LON REUNION_TYPE REUNION_WIND REUNION_PRES REUNION_TNUM REUNION_CI REUNION_RMW REUNION_R34_NE REUNION_R34_SE REUNION_R34_SW REUNION_R34_NW REUNION_R50_NE REUNION_R50_SE REUNION_R50_SW REUNION_R50_NW REUNION_R64_NE REUNION_R64_SE REUNION_R64_SW REUNION_R64_NW BOM_LAT BOM_LON BOM_TYPE BOM_WIND BOM_PRES BOM_TNUM BOM_CI BOM_RMW BOM_R34_NE BOM_R34_SE BOM_R34_SW BOM_R34_NW BOM_R50_NE BOM_R50_SE BOM_R50_SW BOM_R50_NW BOM_R64_NE BOM_R64_SE BOM_R64_SW BOM_R64_NW BOM_ROCI BOM_POCI BOM_EYE BOM_POS_METHOD BOM_PRES_METHOD NADI_LAT NADI_LON NADI_CAT NADI_WIND NADI_PRES WELLINGTON_LAT WELLINGTON_LON WELLINGTON_WIND WELLINGTON_PRES DS824_LAT DS824_LON DS824_STAGE DS824_WIND DS824_PRES TD9636_LAT TD9636_LON TD9636_STAGE TD9636_WIND TD9636_PRES TD9635_LAT TD9635_LON TD9635_WIND TD9635_PRES TD9635_ROCI NEUMANN_LAT NEUMANN_LON NEUMANN_CLASS NEUMANN_WIND NEUMANN_PRES MLC_LAT MLC_LON MLC_CLASS MLC_WIND MLC_PRES USA_GUST BOM_GUST BOM_GUST_PER REUNION_GUST REUNION_GUST_PER USA_SEAHGT USA_SEARAD_NE USA_SEARAD_SE USA_SEARAD_SW USA_SEARAD_NW STORM_SPEED STORM_DIR
1943063S17172 1943 22 SP MM NOT_NAMED 1943-03-04 00:00:00 NR -16.7000 171.600 main 405 405 __________O___ -1 -16.7000 171.600 2 20 89
1943063S17172 1943 22 SP MM NOT_NAMED 1943-03-04 03:00:00 NR -16.6912 172.649 main 509 408 __________P___ -1 -16.6912 172.649 2 20 90
1943063S17172 1943 22 SP MM NOT_NAMED 1943-03-04 06:00:00 NR -16.6835 173.668 main 399 311 __________P___ -1 -16.6835 173.668 2 19 90
1943063S17172 1943 22 SP MM NOT_NAMED 1943-03-04 09:00:00 NR -16.6840 174.628 main 311 225 __________P___ -1 -16.6840 174.628 2 18 91
1943063S17172 1943 22 SP MM NOT_NAMED 1943-03-04 12:00:00 NR -16.7000 175.500 main 225 162 __________O___ -1 -16.7000 175.500 2 16 92
1943063S17172 1943 22 SP MM NOT_NAMED 1943-03-04 15:00:00 NR -16.7368 176.268 main 154 101 __________P___ -1 -16.7368 176.268 2 14 94
1943063S17172 1943 22 SP MM NOT_NAMED 1943-03-04 18:00:00 NR -16.7885 176.972 main 94 78 __________P___ -1 -16.7885 176.972 2 13 95
1943063S17172 1943 22 SP MM NOT_NAMED 1943-03-04 21:00:00 NR -16.8462 177.665 main 74 15 __________P___ -1 -16.8462 177.665 2 14 95
1943063S17172 1943 22 SP MM NOT_NAMED 1943-03-05 00:00:00 NR -16.9000 178.400 main 15 0 __________O___ -1 -16.9000 178.400 2 15 93
1943063S17172 1943 22 SP MM NOT_NAMED 1943-03-05 03:00:00 NR -16.9274 179.234 main 10 10 __________P___ -1 -16.9274 179.234 2 16 92
1943063S17172 1943 22 SP MM NOT_NAMED 1943-03-05 06:00:00 NR -16.9489 180.118 main 24 24 __________P___ -1 -16.9489 -179.882 2 17 91
1943063S17172 1943 22 SP MM NOT_NAMED 1943-03-05 09:00:00 NR -16.9709 181.043 main 119 119 __________P___ -1 -16.9709 -178.957 2 18 92
1943063S17172 1943 22 SP MM NOT_NAMED 1943-03-05 12:00:00 NR -17.0000 182.000 main 224 224 __________O___ -1 -17.0000 -178.000 2 18 91
1943063S17172 1943 22 SP MM NOT_NAMED 1943-03-05 15:00:00 NR -17.0048 182.953 main 330 330 __________P___ -1 -17.0048 -177.047 2 19 91
1943063S17172 1943 22 SP MM NOT_NAMED 1943-03-05 18:00:00 NR -17.0228 183.935 main 426 426 __________P___ -1 -17.0228 -176.065 2 19 92
1943063S17172 1943 22 SP MM NOT_NAMED 1943-03-05 21:00:00 NR -17.0794 184.950 main 450 413 __________P___ -1 -17.0794 -175.050 2 20 95
1943063S17172 1943 22 SP MM NOT_NAMED 1943-03-06 00:00:00 NR -17.2000 186.000 main 409 397 __________O___ -1 -17.2000 -174.000 2 21 99
1943063S17172 1943 22 SP MM NOT_NAMED 1943-03-06 03:00:00 NR -17.4114 187.144 main 404 403 __________P___ -1 -17.4114 -172.856 2 23 102
1943063S17172 1943 22 SP MM NOT_NAMED 1943-03-06 06:00:00 NR -17.6844 188.315 main 439 439 __________P___ -1 -17.6844 -171.685 2 23 105
1943063S17172 1943 22 SP MM NOT_NAMED 1943-03-06 09:00:00 NR -17.9899 189.454 main 504 504 __________P___ -1 -17.9899 -170.546 2 22 106
1943063S17172 1943 22 SP MM NOT_NAMED 1943-03-06 12:00:00 NR -18.3000 190.500 main 580 580 __________O___ -1 -18.3000 -169.500 2 19 108
1943063S17172 1943 22 SP MM NOT_NAMED 1943-03-06 15:00:00 NR -18.6045 191.392 main 660 660 __________P___ -1 -18.6045 -168.608 2 17 111
1943063S17172 1943 22 SP MM NOT_NAMED 1943-03-06 18:00:00 NR -18.9063 192.185 main 739 739 __________P___ -1 -18.9063 -167.815 2 16 112
1943063S17172 1943 22 SP MM NOT_NAMED 1943-03-06 21:00:00 NR -19.1802 192.910 main 812 812 __________P___ -1 -19.1802 -167.090 2 14 110
1943063S17172 1943 22 SP MM NOT_NAMED 1943-03-07 00:00:00 NR -19.4000 193.600 main 880 880 __________O___ -1 -19.4000 -166.400 2 14 105
1943063S17172 1943 22 SP MM NOT_NAMED 1943-03-07 03:00:00 NR -19.5397 194.321 main 941 941 __________P___ -1 -19.5397 -165.679 2 14 100
1943063S17172 1943 22 SP MM NOT_NAMED 1943-03-07 06:00:00 NR -19.6239 195.011 main 1004 1004 __________P___ -1 -19.6239 -164.989 2 13 96
1943063S17172 1943 22 SP MM NOT_NAMED 1943-03-07 09:00:00 NR -19.6712 195.671 main 1069 1069 __________P___ -1 -19.6712 -164.329 2 12 94
1943063S17172 1943 22 SP MM NOT_NAMED 1943-03-07 12:00:00 NR -19.7000 196.300 main 1120 1120 __________O___ -1 -19.7000 -163.700 2 12 93
1943063S17172 1943 22 SP MM NOT_NAMED 1943-03-07 15:00:00 NR -19.7432 196.949 main 1172 1172 __________P___ -1 -19.7432 -163.051 2 12 93
1943063S17172 1943 22 SP MM NOT_NAMED 1943-03-07 18:00:00 NR -19.7724 197.563 main 1240 1240 __________P___ -1 -19.7724 -162.437 2 11 92
1943063S17172 1943 22 SP MM NOT_NAMED 1943-03-07 21:00:00 NR -19.7904 198.120 main 1285 1285 __________P___ -1 -19.7904 -161.880 2 10 92
1943063S17172 1943 22 SP MM NOT_NAMED 1943-03-08 00:00:00 NR -19.8000 198.600 main 1330 1330 __________O___ -1 -19.8000 -161.400 2 8 91
1943063S17172 1943 22 SP MM NOT_NAMED 1943-03-08 03:00:00 NR -19.8022 198.995 main 1367 1367 __________P___ -1 -19.8022 -161.005 2 7 90
1943063S17172 1943 22 SP MM NOT_NAMED 1943-03-08 06:00:00 NR -19.7990 199.313 main 1395 1395 __________P___ -1 -19.7990 -160.687 2 5 89
1943063S17172 1943 22 SP MM NOT_NAMED 1943-03-08 09:00:00 NR -19.7963 199.574 main 1423 1423 __________P___ -1 -19.7963 -160.426 2 5 90
1943063S17172 1943 22 SP MM NOT_NAMED 1943-03-08 12:00:00 NR -19.8000 199.800 main 1442 1442 __________O___ -1 -19.8000 -160.200 2 4 93
1943063S17172 1943 22 SP MM NOT_NAMED 1943-03-08 15:00:00 NR -19.8176 200.037 main 1461 1461 __________P___ -1 -19.8176 -159.963 2 4 96
1943063S17172 1943 22 SP MM NOT_NAMED 1943-03-08 18:00:00 NR -19.8423 200.245 main 1480 1480 __________P___ -1 -19.8423 -159.755 2 4 98
1943063S17172 1943 22 SP MM NOT_NAMED 1943-03-08 21:00:00 NR -19.8708 200.431 main 1504 1504 __________P___ -1 -19.8708 -159.569 2 3 100
1943063S17172 1943 22 SP MM NOT_NAMED 1943-03-09 00:00:00 NR -19.9000 200.600 main 1523 1523 __________O___ -1 -19.9000 -159.400 2 3 99
1943063S17172 1943 22 SP MM NOT_NAMED 1943-03-09 03:00:00 NR -19.9209 200.777 main 1542 1542 __________P___ -1 -19.9209 -159.223 2 3 98
1943063S17172 1943 22 SP MM NOT_NAMED 1943-03-09 06:00:00 NR -19.9425 200.938 main 1551 1551 __________P___ -1 -19.9425 -159.062 2 3 99
1943063S17172 1943 22 SP MM NOT_NAMED 1943-03-09 09:00:00 NR -19.9678 201.080 main 1575 1575 __________P___ -1 -19.9678 -158.920 2 3 103
1943063S17172 1943 22 SP MM NOT_NAMED 1943-03-09 12:00:00 NR -20.0000 201.200 main 1584 1584 __________O___ -1 -20.0000 -158.800 2 2 102
1943063S17172 1943 22 SP MM NOT_NAMED 1943-03-09 15:00:00 NR -20.0184 201.337 main 1594 1594 __________P___ -1 -20.0184 -158.663 2 2 102
1943063S17172 1943 22 SP MM NOT_NAMED 1943-03-09 18:00:00 NR -20.0474 201.447 main 1603 1603 __________P___ -1 -20.0474 -158.553 2 2 117
1943063S17172 1943 22 SP MM NOT_NAMED 1943-03-09 21:00:00 NR -20.1027 201.509 main 1617 1617 __________P___ -1 -20.1027 -158.491 2 2 159
1943063S17172 1943 22 SP MM NOT_NAMED 1943-03-10 00:00:00 NR -20.2000 201.500 main 1622 1617 __________O___ -1 -20.2000 -158.500 2 3 203
1943063S17172 1943 22 SP MM NOT_NAMED 1943-03-10 03:00:00 NR -20.3732 201.393 main 1622 1612 __________P___ -1 -20.3732 -158.607 2 5 215
1943063S17172 1943 22 SP MM NOT_NAMED 1943-03-10 06:00:00 NR -20.5852 201.218 main 1613 1604 __________P___ -1 -20.5852 -158.782 2 6 220
1943063S17172 1943 22 SP MM NOT_NAMED 1943-03-10 09:00:00 NR -20.8045 201.009 main 1604 1596 __________P___ -1 -20.8045 -158.991 2 6 223
1943063S17172 1943 22 SP MM NOT_NAMED 1943-03-10 12:00:00 NR -21.0000 200.800 main 1596 1587 __________O___ -1 -21.0000 -159.200 2 4 226
1943063S17172 1943 22 SP MM NOT_NAMED 1943-03-10 15:00:00 NR -21.0793 200.702 main 1592 1583 __________P___ -1 -21.0793 -159.298 2 2 233
1943063S17172 1943 22 SP MM NOT_NAMED 1943-03-10 18:00:00 NR -21.1388 200.603 main 1583 1579 __________P___ -1 -21.1388 -159.397 2 3 237
1943063S17172 1943 22 SP MM NOT_NAMED 1943-03-10 21:00:00 NR -21.2290 200.452 main 1579 1564 __________P___ -1 -21.2290 -159.548 2 5 235
1943063S17172 1943 22 SP MM NOT_NAMED 1943-03-11 00:00:00 NR -21.4000 200.200 main 1564 1540 __________O___ -1 -21.4000 -159.800 2 8 234
1943063S17172 1943 22 SP MM NOT_NAMED 1943-03-11 03:00:00 NR -21.7069 199.756 main 1546 1520 __________P___ -1 -21.7069 -160.244 2 12 233
1943063S17172 1943 22 SP MM NOT_NAMED 1943-03-11 06:00:00 NR -22.0969 199.212 main 1520 1506 __________P___ -1 -22.0969 -160.788 2 13 231
1943063S17172 1943 22 SP MM NOT_NAMED 1943-03-11 09:00:00 NR -22.5382 198.637 main 1498 1495 __________P___ -1 -22.5382 -161.363 2 14 229
1943063S17172 1943 22 SP MM NOT_NAMED 1943-03-11 12:00:00 NR -23.0000 198.100 main 1495 1487 __________O___ -1 -23.0000 -161.900 2 13 225
1943063S17172 1943 22 SP MM NOT_NAMED 1943-03-11 15:00:00 NR -23.4393 197.647 main 1488 1488 __________P___ -1 -23.4393 -162.353 2 12 221
1943063S17172 1943 22 SP MM NOT_NAMED 1943-03-11 18:00:00 NR -23.8922 197.251 main 1507 1500 __________P___ -1 -23.8922 -162.749 2 11 216
1943063S17172 1943 22 SP MM NOT_NAMED 1943-03-11 21:00:00 NR -24.3489 196.929 main 1513 1513 __________P___ -1 -24.3489 -163.071 2 10 209
1943063S17172 1943 22 SP MM NOT_NAMED 1943-03-12 00:00:00 NR -24.8000 196.700 main 1543 1543 __________O___ -1 -24.8000 -163.300 2 9 202
1943063S17172 1943 22 SP MM NOT_NAMED 1943-03-12 03:00:00 NR -25.2235 196.548 main 1566 1566 __________P___ -1 -25.2235 -163.452 2 9 193
1943063S17172 1943 22 SP MM NOT_NAMED 1943-03-12 06:00:00 NR -25.6418 196.492 main 1602 1602 __________P___ -1 -25.6418 -163.508 2 8 183
1943063S17172 1943 22 SP MM NOT_NAMED 1943-03-12 09:00:00 NR -26.0642 196.515 main 1647 1647 __________P___ -1 -26.0642 -163.485 2 9 173
1943063S17172 1943 22 SP MM NOT_NAMED 1943-03-12 12:00:00 NR -26.5000 196.600 main 1689 1689 __________O___ -1 -26.5000 -163.400 2 9 170
1943063S17172 1943 22 SP MM NOT_NAMED 1943-03-12 15:00:00 NR -26.9889 196.693 main 1741 1741 __________P___ -1 -26.9889 -163.307 2 10 168
1943063S17172 1943 22 SP MM NOT_NAMED 1943-03-12 18:00:00 NR -27.4872 196.844 main 1793 1793 __________P___ -1 -27.4872 -163.156 2 10 162
1943063S17172 1943 22 SP MM NOT_NAMED 1943-03-12 21:00:00 NR -27.9669 197.049 main 1851 1851 __________P___ -1 -27.9669 -162.951 2 10 156
1943063S17172 1943 22 SP MM NOT_NAMED 1943-03-13 00:00:00 NR -28.4000 197.300 main 1904 1904 __________O___ -1 -28.4000 -162.700 2 9 150
1943063S17172 1943 22 SP MM NOT_NAMED 1943-03-13 03:00:00 NR -28.7543 197.570 main 1958 1958 __________P___ -1 -28.7543 -162.430 2 8 142
1943063S17172 1943 22 SP MM NOT_NAMED 1943-03-13 06:00:00 NR -29.0598 197.883 main 2002 2002 __________P___ -1 -29.0598 -162.117 2 8 135
1943063S17172 1943 22 SP MM NOT_NAMED 1943-03-13 09:00:00 NR -29.3354 198.230 main 2035 2029 __________P___ -1 -29.3354 -161.770 2 8 131
1943063S17172 1943 22 SP MM NOT_NAMED 1943-03-13 12:00:00 NR -29.6000 198.600 main 2050 2050 __________O___ -1 -29.6000 -161.400 2 8 129
1943063S17172 1943 22 SP MM NOT_NAMED 1943-03-13 15:00:00 NR -29.8689 198.986 main 2066 2066 __________P___ -1 -29.8689 -161.014 2 9 129
1943063S17172 1943 22 SP MM NOT_NAMED 1943-03-13 18:00:00 NR -30.1435 199.383 main 2088 2083 __________P___ -1 -30.1435 -160.617 2 9 128
1943063S17172 1943 22 SP MM NOT_NAMED 1943-03-13 21:00:00 NR -30.4213 199.789 main 2106 2100 __________P___ -1 -30.4213 -160.211 2 9 128
1943063S17172 1943 22 SP MM NOT_NAMED 1943-03-14 00:00:00 NR -30.7000 200.200 main 2124 __________O___ -1 -30.7000 -159.800 2 9 128

Digital Typhoon Data and Search

About IBTrACS Database

This database is a web-friendly format of International Best Track Archive for Climate Stewardship (IBTrACS), a global best track data archive curated by NOAA dating back to 1842.

Updated: 2021-10-25